Search for airport 
image banner adimage banner adimage banner ad
image banner ad

9G8 - Ebensburg

Located in Ebensburg, United States

ICAO - 9G8, IATA -

Data provided by Airmate  

General information

Coordinates: N40°27'40" W78°46'31"
Elevation is 2099 feet MSL.
Magnetic variation is -09° East
View others Airports in Pennsylvania

Operational data

Special qualification required
Current time UTC:
Current local time:
METAR: KJST 071154Z AUTO 00000KT 10SM FEW085 SCT120 06/01 A2986 RMK AO2 SLP119 T00560006 10067 20022 56003
TAF: KJST 071127Z 0712/0812 18007KT P6SM BKN035 OVC100 FM071300 20005KT P6SM -RA BKN035 OVC070 FM071700 27008KT 4SM -RA BR OVC015 FM080000 28007KT P6SM BKN035 FM080800 29008G15KT 5SM -SHRA OVC009
View NOTAMs / SUP AIP / TFR affecting this airport [VIEW]
Communications frequencies: [VIEW]

Runways:

RWY identifierQFULength (ft)Width (ft)SurfaceLDA (ft)
0757°320450ASPH
25237°320450ASPH
11U97°1636150OTHER
29U277°1636150OTHER
111636150UNK
291636150UNK

Airport contact information

Address: Ebensburg United States

Satellite view of 9G8